SKVV/VVC METAR and TAF weather

Enter ICAO airport designator
Station Type Date Time Source
SKVV METAR 2019/09/20 20:00 UTC NOAA

SKVV 202000Z 22009KT 9999 -DZ SCT015 BKN080 24/21 A2994


Station Type Date Time Source
SKVV Decoded METAR 2019/09/20 20:00 UTC NOAA

Villavicencio / Vanguardia, Colombia (SKVV) 04-10N 073-37W 431M
Sep 20, 2019 - 04:00 PM EDT / 2019.09.20 2000 UTC
Wind: from the SW (220 degrees) at 10 MPH (9 KT):0
Visibility: greater than 7 mile(s):0
Sky conditions: mostly cloudy
Weather: light drizzle
Temperature: 75 F (24 C)
Dew Point: 69 F (21 C)
Relative Humidity: 83%
Pressure (altimeter): 29.94 in. Hg (1013 hPa)
ob: SKVV 202000Z 22009KT 9999 -DZ SCT015 BKN080 24/21 A2994
cycle: 20

Station Type Date Time Source
SKVV TAF UTC NOAA

Error!

Example: see airport list